Airport View

Enter AWOS ICAO identifier for current METAR.

ex. KFNL

KBRY 171315Z AUTO 00000KT 5SM CLR M04/M05 A3010 RMK AO1

17 Nov 2019 13:15

Frequency: 119.925

Phone: 502-348-1867

Other Area AWOS: K6I2 - KEKX - KSDF - KLOU

TAF KFTK 170900Z 1709/1815 VRB06KT 9999 FEW150 QNH2985INS BECMG 1808/1809 09006KT 9000 BR BKN015 QNH2979INS TX07/1720Z TNM02/1712Z